Time;durP1;ratioP1;P1;durP2;ratioP2;P2;SDS_P1;SDS_P2;PMS_P1;PMS_P2;Temp;Humidity;BMP_temperature;BMP_pressure;BME280_temperature;BME280_humidity;BME280_pressure;Samples;Min_cycle;Max_cycle;Signal;HPM_P1;HPM_P2
2022/01/11 00:01:42;;;;;;;2.58;1.63;;;18.50;60.70;;;;;;10501525;28;20476;-57
2022/01/11 00:06:47;;;;;;;2.10;1.30;;;18.40;60.90;;;;;;10503971;28;20395;-57
2022/01/11 00:11:51;;;;;;;2.33;1.50;;;18.50;60.70;;;;;;10481942;28;20085;-55
2022/01/11 00:16:52;;;;;;;2.78;1.60;;;18.50;60.80;;;;;;10480775;28;20123;-56
2022/01/11 00:21:52;;;;;;;2.08;1.27;;;18.50;60.80;;;;;;10480568;28;20208;-56
2022/01/11 00:26:53;;;;;;;1.75;1.20;;;18.50;60.60;;;;;;10488200;28;20625;-57
2022/01/11 00:31:57;;;;;;;2.28;1.60;;;18.50;60.80;;;;;;10503947;28;20115;-55
2022/01/11 00:36:58;;;;;;;2.03;1.25;;;18.40;60.70;;;;;;10511187;28;20036;-57
2022/01/11 00:41:59;;;;;;;2.60;1.52;;;18.60;60.50;;;;;;10496358;28;20603;-57
2022/01/11 00:47:00;;;;;;;2.22;1.50;;;18.50;60.60;;;;;;10479423;28;20031;-55
2022/01/11 00:52:01;;;;;;;2.28;1.40;;;18.50;60.60;;;;;;10479279;28;20436;-56
2022/01/11 00:57:03;;;;;;;2.13;1.40;;;18.60;60.40;;;;;;10462577;28;20035;-57
2022/01/11 01:02:04;;;;;;;2.33;1.40;;;18.60;60.40;;;;;;10498244;28;20020;-57
2022/01/11 01:07:05;;;;;;;2.40;1.50;;;18.60;60.30;;;;;;10482971;28;20016;-57
2022/01/11 01:12:07;;;;;;;2.65;1.63;;;18.60;60.40;;;;;;10497014;28;20070;-55
2022/01/11 01:17:07;;;;;;;1.63;1.20;;;18.50;60.50;;;;;;10496296;28;20033;-54
2022/01/11 01:22:08;;;;;;;2.30;1.63;;;18.60;60.30;;;;;;10496093;28;20561;-55
2022/01/11 01:27:09;;;;;;;1.70;1.30;;;18.50;60.40;;;;;;10495729;28;20153;-57
2022/01/11 01:32:10;;;;;;;1.88;1.10;;;18.50;60.50;;;;;;10477774;28;20111;-55
2022/01/11 01:37:11;;;;;;;1.95;1.38;;;18.50;60.40;;;;;;10517249;28;20476;-57
2022/01/11 01:42:12;;;;;;;2.25;1.48;;;18.60;60.10;;;;;;10519111;28;20028;-54
2022/01/11 01:47:13;;;;;;;2.35;1.30;;;18.50;60.30;;;;;;10518649;28;20024;-56
2022/01/11 01:52:15;;;;;;;1.80;1.33;;;18.50;60.40;;;;;;10536774;28;20024;-56
2022/01/11 01:57:15;;;;;;;1.65;1.33;;;18.60;60.00;;;;;;10536659;28;20024;-57
2022/01/11 02:02:16;;;;;;;2.42;1.45;;;18.50;60.30;;;;;;10480866;28;20028;-56
2022/01/11 02:07:17;;;;;;;1.75;1.17;;;18.50;60.40;;;;;;10481339;28;20024;-55
2022/01/11 02:12:17;;;;;;;2.58;1.38;;;18.50;60.30;;;;;;10476782;28;20056;-56
2022/01/11 02:17:18;;;;;;;2.10;1.30;;;18.60;60.10;;;;;;10494381;28;20069;-55
2022/01/11 02:22:19;;;;;;;1.63;1.25;;;18.60;60.00;;;;;;10476234;28;20111;-57
2022/01/11 02:27:19;;;;;;;1.83;1.15;;;18.60;60.10;;;;;;10486687;28;20529;-57
2022/01/11 02:32:20;;;;;;;2.25;1.50;;;18.50;60.30;;;;;;10497440;28;20081;-57
2022/01/11 02:37:21;;;;;;;1.67;1.08;;;18.60;60.10;;;;;;10516739;28;20028;-57
2022/01/11 02:42:23;;;;;;;2.70;1.65;;;18.50;60.30;;;;;;10500728;28;20035;-57
2022/01/11 02:47:24;;;;;;;1.90;1.30;;;18.50;60.20;;;;;;10501052;28;20028;-57
2022/01/11 02:52:24;;;;;;;2.28;1.40;;;18.60;60.00;;;;;;10535393;28;20030;-56
2022/01/11 02:57:25;;;;;;;2.33;1.45;;;18.50;60.20;;;;;;10500311;28;20032;-57
2022/01/11 03:02:26;;;;;;;2.58;1.73;;;18.50;60.20;;;;;;10501912;28;20078;-57
2022/01/11 03:07:26;;;;;;;2.10;1.10;;;18.60;60.00;;;;;;10505278;28;20021;-55
2022/01/11 03:12:27;;;;;;;2.22;1.48;;;18.50;60.20;;;;;;10501678;28;20028;-56
2022/01/11 03:17:28;;;;;;;2.83;1.40;;;18.60;60.10;;;;;;10501033;28;20117;-56
2022/01/11 03:22:28;;;;;;;1.73;1.20;;;18.50;59.90;;;;;;10483174;28;20033;-57
2022/01/11 03:27:29;;;;;;;1.98;1.42;;;18.60;59.80;;;;;;10500490;28;20098;-57
2022/01/11 03:32:30;;;;;;;1.85;1.20;;;18.60;59.80;;;;;;10500815;28;20107;-56
2022/01/11 03:37:30;;;;;;;2.45;1.92;;;18.70;59.70;;;;;;10507288;28;20024;-56
2022/01/11 03:42:31;;;;;;;2.10;1.30;;;18.60;59.90;;;;;;10507277;28;20373;-57
2022/01/11 03:47:33;;;;;;;2.25;1.45;;;18.60;60.00;;;;;;10523615;28;20140;-55
2022/01/11 03:52:35;;;;;;;1.80;1.25;;;18.60;59.80;;;;;;10481719;28;20028;-56
2022/01/11 03:57:36;;;;;;;1.98;1.38;;;18.60;59.80;;;;;;10482070;28;20024;-54
2022/01/11 04:02:36;;;;;;;2.30;1.40;;;18.60;60.00;;;;;;10483077;28;20039;-57
2022/01/11 04:07:38;;;;;;;2.03;1.40;;;18.60;59.90;;;;;;10485597;28;20041;-57
2022/01/11 04:12:39;;;;;;;1.90;1.25;;;18.60;59.80;;;;;;10480446;28;20067;-56
2022/01/11 04:17:40;;;;;;;1.73;1.08;;;18.60;60.00;;;;;;10498789;28;20032;-56
2022/01/11 04:22:41;;;;;;;2.35;1.50;;;18.60;59.80;;;;;;10463728;28;20021;-56
2022/01/11 04:27:42;;;;;;;2.33;1.73;;;18.60;59.80;;;;;;10480164;28;20045;-55
2022/01/11 04:32:43;;;;;;;2.47;1.35;;;18.60;60.00;;;;;;10500412;28;20036;-56
2022/01/11 04:37:45;;;;;;;2.03;1.35;;;18.60;59.90;;;;;;10505612;28;20512;-57
2022/01/11 04:42:45;;;;;;;2.58;1.65;;;18.60;59.90;;;;;;10521417;28;20028;-57
2022/01/11 04:47:50;;;;;;;2.00;1.20;;;18.70;59.70;;;;;;10515532;28;20024;-57
2022/01/11 04:52:50;;;;;;;2.38;1.60;;;18.60;59.70;;;;;;10497253;28;20038;-56
2022/01/11 04:57:51;;;;;;;1.60;1.42;;;18.60;59.90;;;;;;10462638;28;20488;-57
2022/01/11 05:02:56;;;;;;;2.10;1.13;;;18.60;59.80;;;;;;10481050;28;20024;-55
2022/01/11 05:07:57;;;;;;;1.85;1.15;;;18.60;59.80;;;;;;10483695;28;20029;-55
2022/01/11 05:12:58;;;;;;;2.17;1.33;;;18.60;59.80;;;;;;10476928;28;20480;-57
2022/01/11 05:17:59;;;;;;;1.73;1.20;;;18.60;59.70;;;;;;10462084;28;20035;-56
2022/01/11 05:23:00;;;;;;;1.95;1.20;;;18.60;59.90;;;;;;10477286;28;20109;-57
2022/01/11 05:28:01;;;;;;;3.00;1.52;;;18.60;59.80;;;;;;10478040;28;20055;-57
2022/01/11 05:33:02;;;;;;;2.17;1.50;;;18.60;59.70;;;;;;10500576;28;20383;-57
2022/01/11 05:38:03;;;;;;;2.10;1.38;;;18.60;59.60;;;;;;10537995;28;20055;-56
2022/01/11 05:43:05;;;;;;;2.20;1.23;;;18.60;59.80;;;;;;10537085;28;20028;-56
2022/01/11 05:48:07;;;;;;;2.13;1.23;;;18.60;59.80;;;;;;10508656;28;20044;-57
2022/01/11 05:53:07;;;;;;;2.60;1.65;;;18.60;59.60;;;;;;10486908;28;20024;-56
2022/01/11 05:58:08;;;;;;;1.88;1.05;;;18.70;59.70;;;;;;10498866;28;20038;-56
2022/01/11 06:03:09;;;;;;;2.00;1.33;;;18.70;59.70;;;;;;10492928;28;20373;-57
2022/01/11 06:08:10;;;;;;;2.08;1.38;;;18.60;59.60;;;;;;10505331;28;20029;-56
2022/01/11 06:13:11;;;;;;;4.80;2.15;;;18.60;59.90;;;;;;10520458;28;20044;-54
2022/01/11 06:18:11;;;;;;;8.43;1.95;;;18.70;60.20;;;;;;10486632;28;20042;-57
2022/01/11 06:23:12;;;;;;;3.58;1.42;;;18.80;60.50;;;;;;10503317;28;20040;-56
2022/01/11 06:28:13;;;;;;;5.65;1.85;;;18.80;61.10;;;;;;10484940;28;20131;-57
2022/01/11 06:33:14;;;;;;;7.22;1.80;;;18.90;60.90;;;;;;10484683;28;20112;-57
2022/01/11 06:38:15;;;;;;;15.38;2.20;;;18.90;61.00;;;;;;10549404;28;20028;-56
2022/01/11 06:43:15;;;;;;;5.72;2.47;;;18.80;61.90;;;;;;10549424;28;20064;-56
2022/01/11 06:48:16;;;;;;;3.95;2.00;;;18.90;62.20;;;;;;10531405;28;20387;-55
2022/01/11 06:53:17;;;;;;;8.82;2.10;;;19.00;62.20;;;;;;10538114;28;20047;-56
2022/01/11 06:58:18;;;;;;;9.60;2.58;;;18.90;62.10;;;;;;10508728;28;20127;-57
2022/01/11 07:03:18;;;;;;;11.20;3.90;;;18.90;61.60;;;;;;10501122;28;20480;-55
2022/01/11 07:08:19;;;;;;;7.90;2.85;;;18.90;61.00;;;;;;10519577;28;20035;-55
2022/01/11 07:13:21;;;;;;;12.18;3.03;;;18.90;60.60;;;;;;10536813;28;20028;-56
2022/01/11 07:18:21;;;;;;;13.20;3.25;;;19.00;60.10;;;;;;10500490;28;20028;-55
2022/01/11 07:23:22;;;;;;;9.40;2.88;;;19.00;60.00;;;;;;10508517;28;20036;-56
2022/01/11 07:28:23;;;;;;;11.82;3.15;;;19.00;59.50;;;;;;10486132;28;20492;-55
2022/01/11 07:33:24;;;;;;;5.43;2.70;;;19.10;59.30;;;;;;10509047;28;20032;-55
2022/01/11 07:38:25;;;;;;;7.47;3.17;;;19.10;59.20;;;;;;10505162;28;20531;-54
2022/01/11 07:43:25;;;;;;;9.25;3.20;;;19.10;59.40;;;;;;10523336;28;20549;-54
2022/01/11 07:48:26;;;;;;;7.30;2.67;;;19.10;59.20;;;;;;10505850;28;20369;-54
2022/01/11 07:53:27;;;;;;;6.30;2.88;;;19.00;59.00;;;;;;10522990;28;20360;-55
2022/01/11 07:58:28;;;;;;;4.93;2.60;;;19.00;59.20;;;;;;10499727;28;20565;-56
2022/01/11 08:03:29;;;;;;;6.72;2.90;;;19.10;58.80;;;;;;10491568;28;20029;-57
2022/01/11 08:08:29;;;;;;;5.13;2.72;;;19.20;58.60;;;;;;10486342;28;20021;-55
2022/01/11 08:13:30;;;;;;;5.47;2.63;;;19.10;58.90;;;;;;10480869;28;20107;-54
2022/01/11 08:18:31;;;;;;;4.82;3.50;;;19.10;59.10;;;;;;10480719;28;20043;-55
2022/01/11 08:23:33;;;;;;;5.00;2.55;;;19.20;58.80;;;;;;10511463;28;20594;-55
2022/01/11 08:28:33;;;;;;;4.10;2.63;;;19.20;58.80;;;;;;10492244;28;20044;-55
2022/01/11 08:33:34;;;;;;;4.45;2.33;;;19.20;58.80;;;;;;10507666;28;20391;-54
2022/01/11 08:38:36;;;;;;;4.40;2.60;;;19.20;58.90;;;;;;10486967;28;20045;-55
2022/01/11 08:43:37;;;;;;;4.03;2.53;;;19.20;58.90;;;;;;10479747;28;20048;-55
2022/01/11 08:48:38;;;;;;;3.35;2.40;;;19.10;59.00;;;;;;10493404;28;20035;-53
2022/01/11 08:53:39;;;;;;;3.75;2.20;;;19.20;59.20;;;;;;10515028;28;20496;-54
2022/01/11 08:58:39;;;;;;;3.55;2.55;;;19.20;59.10;;;;;;10538833;28;20088;-53
2022/01/11 09:03:40;;;;;;;4.82;2.70;;;19.10;59.00;;;;;;10488386;28;20553;-53
2022/01/11 09:08:41;;;;;;;3.78;2.60;;;19.10;58.80;;;;;;10501719;28;20016;-54
2022/01/11 09:13:42;;;;;;;4.10;2.63;;;19.30;58.50;;;;;;10502222;28;20039;-55
2022/01/11 09:18:43;;;;;;;5.00;2.78;;;19.20;58.70;;;;;;10493208;28;20119;-55
2022/01/11 09:23:44;;;;;;;4.80;2.63;;;19.10;58.80;;;;;;10488047;28;20035;-55
2022/01/11 09:28:45;;;;;;;4.47;2.67;;;19.10;59.00;;;;;;10501966;28;20515;-54
2022/01/11 09:33:46;;;;;;;3.10;1.90;;;19.10;59.00;;;;;;10488869;28;20085;-53
2022/01/11 09:38:47;;;;;;;4.38;2.90;;;19.20;58.90;;;;;;10525127;28;20073;-55
2022/01/11 09:43:48;;;;;;;3.90;2.22;;;19.20;58.80;;;;;;10520360;28;20090;-55
2022/01/11 09:48:48;;;;;;;3.25;2.20;;;19.10;59.00;;;;;;10520208;28;20103;-56
2022/01/11 09:53:49;;;;;;;3.58;2.78;;;19.10;59.00;;;;;;10504408;28;20114;-55
2022/01/11 09:58:50;;;;;;;2.75;2.03;;;19.20;58.90;;;;;;10478186;28;20111;-56
2022/01/11 10:04:13;;;;;;;3.83;2.22;;;19.30;58.70;;;;;;10478705;28;20396;-55
2022/01/11 10:09:18;;;;;;;5.05;2.30;;;19.30;58.60;;;;;;10480452;28;20028;-55
2022/01/11 10:14:37;;;;;;;4.35;2.50;;;19.20;58.80;;;;;;10476533;28;20119;-55
2022/01/11 10:19:42;;;;;;;3.60;1.92;;;19.20;58.80;;;;;;10490172;28;20417;-55
2022/01/11 10:24:52;;;;;;;4.15;2.78;;;19.20;58.80;;;;;;10478099;28;20052;-55
2022/01/11 10:30:00;;;;;;;4.88;2.47;;;19.20;58.60;;;;;;10514916;28;20384;-53
2022/01/11 10:35:42;;;;;;;4.25;2.60;;;19.30;59.10;;;;;;10499795;28;20545;-51
2022/01/11 10:40:46;;;;;;;4.57;2.53;;;19.30;59.90;;;;;;10484549;28;20139;-52
2022/01/11 10:45:52;;;;;;;3.80;2.35;;;19.30;59.80;;;;;;10483878;28;20086;-53
2022/01/11 10:51:01;;;;;;;3.88;2.38;;;19.00;59.80;;;;;;10518120;28;20081;-53
2022/01/11 10:56:04;;;;;;;5.68;2.88;;;18.90;60.20;;;;;;10518516;28;20047;-52
2022/01/11 11:01:07;;;;;;;3.53;2.60;;;18.70;60.70;;;;;;10524766;28;20055;-53
2022/01/11 11:06:11;;;;;;;6.78;3.13;;;18.60;60.80;;;;;;10489912;28;20384;-53
2022/01/11 11:11:20;;;;;;;5.95;2.85;;;18.60;60.70;;;;;;10488993;28;20029;-53
2022/01/11 11:16:29;;;;;;;4.30;2.88;;;18.70;60.90;;;;;;10531908;28;20075;-53
2022/01/11 11:21:37;;;;;;;3.55;2.45;;;18.90;60.40;;;;;;10536013;28;20596;-52
2022/01/11 11:26:44;;;;;;;3.63;2.93;;;19.10;60.00;;;;;;10542689;28;20028;-53
2022/01/11 11:31:46;;;;;;;3.10;2.53;;;19.10;59.80;;;;;;10517608;28;20055;-52
2022/01/11 11:36:48;;;;;;;4.90;3.10;;;19.00;60.00;;;;;;10519037;28;20031;-53
2022/01/11 11:41:54;;;;;;;3.88;2.65;;;18.80;60.40;;;;;;10499391;28;20086;-54
2022/01/11 11:47:05;;;;;;;4.22;3.05;;;18.70;61.00;;;;;;10487090;28;20055;-54
2022/01/11 11:52:37;;;;;;;3.83;2.60;;;18.50;61.70;;;;;;10489231;28;20039;-53
2022/01/11 11:57:42;;;;;;;4.70;2.42;;;18.40;62.50;;;;;;10524335;28;20114;-55
2022/01/11 12:03:00;;;;;;;6.22;3.13;;;18.30;62.70;;;;;;10499075;28;20024;-55
2022/01/11 12:08:27;;;;;;;4.13;2.80;;;18.50;62.40;;;;;;10486726;28;20060;-54
2022/01/11 12:13:52;;;;;;;4.05;2.50;;;18.60;62.10;;;;;;10530285;28;20051;-54
2022/01/11 12:18:58;;;;;;;3.70;2.55;;;18.60;62.20;;;;;;10540662;28;20063;-54
2022/01/11 12:24:00;;;;;;;4.95;3.10;;;18.60;62.20;;;;;;10540403;28;20028;-53
2022/01/11 12:29:10;;;;;;;5.05;3.05;;;18.50;62.30;;;;;;10510118;28;20052;-54
2022/01/11 12:34:13;;;;;;;4.20;2.95;;;18.50;62.30;;;;;;10512164;28;20055;-52
2022/01/11 12:39:14;;;;;;;4.03;3.00;;;18.40;62.50;;;;;;10540034;28;20023;-52
2022/01/11 12:49:29;;;;;;;4.38;2.85;;;18.30;62.80;;;;;;10520817;28;20459;-53
2022/01/11 12:54:33;;;;;;;7.68;3.17;;;18.40;62.40;;;;;;10534290;28;20028;-54
2022/01/11 12:59:37;;;;;;;3.88;2.95;;;18.40;62.40;;;;;;10502152;28;20530;-58
2022/01/11 13:04:51;;;;;;;6.70;3.10;;;18.40;61.90;;;;;;10478122;28;20041;-53
2022/01/11 13:10:14;;;;;;;5.03;2.78;;;18.50;61.40;;;;;;10497010;28;20058;-53
2022/01/11 13:15:35;;;;;;;3.80;2.00;;;18.60;61.10;;;;;;10495712;28;20058;-54
2022/01/11 13:20:47;;;;;;;6.38;2.80;;;18.60;61.20;;;;;;10494826;28;20028;-54
2022/01/11 13:25:50;;;;;;;5.47;3.03;;;18.60;60.90;;;;;;10500012;28;20498;-53
2022/01/11 13:30:51;;;;;;;7.88;3.05;;;18.60;61.00;;;;;;10533565;28;20055;-54
2022/01/11 13:35:52;;;;;;;5.38;3.15;;;18.60;61.00;;;;;;10502695;28;20556;-53
2022/01/11 13:40:53;;;;;;;7.03;3.08;;;18.70;61.20;;;;;;10531552;28;20088;-53
2022/01/11 13:45:54;;;;;;;4.75;2.72;;;18.70;61.60;;;;;;10483925;28;20020;-49
2022/01/11 13:50:58;;;;;;;8.90;3.80;;;18.60;61.50;;;;;;10493984;28;20028;-52
2022/01/11 13:56:14;;;;;;;6.10;3.50;;;18.50;61.20;;;;;;10498118;28;20036;-50
2022/01/11 14:01:17;;;;;;;5.45;3.83;;;18.60;60.30;;;;;;10524356;28;20024;-49
2022/01/11 14:06:22;;;;;;;6.63;4.10;;;18.70;59.60;;;;;;10509920;28;20123;-48
2022/01/11 14:11:36;;;;;;;9.23;4.13;;;18.80;58.90;;;;;;10502080;28;20480;-47
2022/01/11 14:16:41;;;;;;;9.15;4.45;;;18.80;58.30;;;;;;10525121;28;20044;-51
2022/01/11 14:21:57;;;;;;;7.95;3.78;;;18.80;58.30;;;;;;10520217;28;20092;-48
2022/01/11 14:26:58;;;;;;;13.38;4.28;;;19.00;58.10;;;;;;10535939;28;20028;-47
2022/01/11 14:32:08;;;;;;;6.38;3.97;;;19.10;57.90;;;;;;10534629;28;20480;-48
2022/01/11 14:37:21;;;;;;;8.82;3.38;;;19.10;57.70;;;;;;10497743;28;20365;-50
2022/01/11 14:42:33;;;;;;;5.50;3.47;;;19.10;57.90;;;;;;10515841;28;20119;-47
2022/01/11 14:47:47;;;;;;;5.82;3.00;;;19.10;58.10;;;;;;10518948;28;20114;-48
2022/01/11 14:53:03;;;;;;;6.55;3.70;;;18.90;58.40;;;;;;10535376;28;20193;-46
2022/01/11 14:58:05;;;;;;;5.65;3.35;;;19.00;58.30;;;;;;10541354;28;20032;-49
2022/01/11 15:03:06;;;;;;;4.85;3.22;;;19.10;58.10;;;;;;10516186;28;20059;-49
2022/01/11 15:08:06;;;;;;;6.85;3.30;;;19.00;58.70;;;;;;10483658;28;20056;-51
2022/01/11 15:13:20;;;;;;;5.90;2.90;;;18.90;58.50;;;;;;10501258;28;20060;-50
2022/01/11 15:18:20;;;;;;;4.00;3.13;;;18.90;58.70;;;;;;10501520;28;20416;-50
2022/01/11 15:23:21;;;;;;;6.00;3.25;;;18.90;58.50;;;;;;10528280;28;20108;-53
2022/01/11 15:28:22;;;;;;;5.65;3.70;;;18.80;58.90;;;;;;10516676;28;20071;-54
2022/01/11 15:33:22;;;;;;;7.53;3.20;;;19.00;58.90;;;;;;10508123;28;20032;-52
2022/01/11 15:38:23;;;;;;;7.85;3.55;;;19.00;59.00;;;;;;10507340;28;20081;-47
2022/01/11 15:43:25;;;;;;;12.93;4.03;;;18.90;59.20;;;;;;10508015;28;20063;-52
2022/01/11 15:48:27;;;;;;;15.48;4.40;;;18.90;59.80;;;;;;10518014;28;20357;-52
2022/01/11 15:53:28;;;;;;;12.68;3.63;;;18.70;60.20;;;;;;10524661;28;20090;-47
2022/01/11 15:58:29;;;;;;;8.18;3.47;;;18.60;60.10;;;;;;10505578;28;20021;-50
2022/01/11 16:03:29;;;;;;;7.15;3.60;;;18.60;59.90;;;;;;10494018;28;20032;-49
2022/01/11 16:08:30;;;;;;;4.45;3.53;;;18.80;58.70;;;;;;10520897;28;20547;-48
2022/01/11 16:13:31;;;;;;;6.90;3.28;;;18.90;58.10;;;;;;10538291;28;20039;-46
2022/01/11 16:18:32;;;;;;;6.68;3.70;;;19.00;57.50;;;;;;10482901;28;20392;-46
2022/01/11 16:23:33;;;;;;;7.35;4.28;;;19.00;57.00;;;;;;10516785;28;20037;-47
2022/01/11 16:28:34;;;;;;;5.93;3.80;;;19.00;57.00;;;;;;10482036;28;20081;-48
2022/01/11 16:33:36;;;;;;;12.15;4.57;;;19.00;56.50;;;;;;10506279;28;20481;-52
2022/01/11 16:38:37;;;;;;;7.47;3.60;;;19.00;56.50;;;;;;10527005;28;20052;-49
2022/01/11 16:43:39;;;;;;;7.93;3.53;;;18.90;56.50;;;;;;10541888;28;20120;-55
2022/01/11 16:48:40;;;;;;;6.57;3.97;;;18.80;56.50;;;;;;10522395;28;20069;-55
2022/01/11 16:53:41;;;;;;;10.00;4.75;;;19.00;56.50;;;;;;10494430;28;20024;-54
2022/01/11 16:58:42;;;;;;;8.35;3.45;;;18.90;56.40;;;;;;10483134;28;20284;-55
2022/01/11 17:03:42;;;;;;;5.13;2.97;;;18.90;56.40;;;;;;10493856;28;20032;-55
2022/01/11 17:08:43;;;;;;;6.25;3.20;;;19.00;56.50;;;;;;10504654;28;20024;-56
2022/01/11 17:13:45;;;;;;;6.63;4.28;;;19.00;56.70;;;;;;10520523;28;20534;-55
2022/01/11 17:18:45;;;;;;;57.50;26.95;;;18.90;56.60;;;;;;10480571;28;20438;-53
2022/01/11 17:23:46;;;;;;;127.90;69.50;;;19.00;56.90;;;;;;10480947;28;20082;-53
2022/01/11 17:28:47;;;;;;;116.20;62.15;;;18.80;58.00;;;;;;10498436;28;20487;-53
2022/01/11 17:33:49;;;;;;;103.78;58.58;;;19.10;59.10;;;;;;10509200;28;20024;-56
2022/01/11 17:38:50;;;;;;;104.13;53.90;;;19.10;58.90;;;;;;10539732;28;20082;-56
2022/01/11 17:43:52;;;;;;;102.18;51.20;;;19.20;58.70;;;;;;10517825;28;20032;-55
2022/01/11 17:48:54;;;;;;;98.30;48.30;;;19.20;59.00;;;;;;10501661;28;20038;-54
2022/01/11 17:53:56;;;;;;;88.68;45.67;;;19.10;59.20;;;;;;10509337;28;20024;-54
2022/01/11 17:58:58;;;;;;;85.75;45.83;;;19.00;59.60;;;;;;10515907;28;20043;-55
2022/01/11 18:03:58;;;;;;;87.10;41.28;;;19.10;59.20;;;;;;10494046;28;20035;-54
2022/01/11 18:08:59;;;;;;;74.88;38.03;;;19.20;59.10;;;;;;10515787;28;20028;-55
2022/01/11 18:14:00;;;;;;;78.35;38.33;;;19.20;58.70;;;;;;10524722;28;20024;-55
2022/01/11 18:19:01;;;;;;;74.25;37.72;;;19.20;58.80;;;;;;10499493;28;20028;-54
2022/01/11 18:24:03;;;;;;;71.63;35.00;;;19.20;58.80;;;;;;10516063;28;20116;-55
2022/01/11 18:29:04;;;;;;;66.53;32.40;;;19.30;58.50;;;;;;10506514;28;20048;-55
2022/01/11 18:34:05;;;;;;;62.17;30.73;;;19.20;58.70;;;;;;10517667;28;20046;-55
2022/01/11 18:39:07;;;;;;;61.40;29.42;;;19.30;58.70;;;;;;10513933;28;20029;-56
2022/01/11 18:44:08;;;;;;;57.63;28.92;;;19.30;58.50;;;;;;10505383;28;20031;-55
2022/01/11 18:49:09;;;;;;;66.97;30.98;;;19.10;58.80;;;;;;10515735;28;20422;-54
2022/01/11 18:54:12;;;;;;;58.17;27.60;;;19.10;58.80;;;;;;10515306;28;20076;-54
2022/01/11 18:59:12;;;;;;;51.85;26.95;;;19.30;58.60;;;;;;10518313;28;20031;-55
2022/01/11 19:04:13;;;;;;;53.28;28.70;;;19.30;58.70;;;;;;10483725;28;20032;-54
2022/01/11 19:09:14;;;;;;;47.25;25.63;;;19.40;58.60;;;;;;10514851;28;20039;-54
2022/01/11 19:14:15;;;;;;;44.88;26.95;;;19.20;59.30;;;;;;10535922;28;20028;-53
2022/01/11 19:19:20;;;;;;;49.03;24.27;;;19.10;59.40;;;;;;10514995;28;20031;-52
2022/01/11 19:24:21;;;;;;;41.55;23.50;;;19.20;59.30;;;;;;10536449;28;20036;-53
2022/01/11 19:29:22;;;;;;;47.60;23.77;;;19.10;60.00;;;;;;10523093;28;20040;-52
2022/01/11 19:34:24;;;;;;;41.72;21.20;;;19.00;60.00;;;;;;10536239;28;20106;-55
2022/01/11 19:39:25;;;;;;;41.33;22.70;;;18.80;60.00;;;;;;10536127;28;20035;-54
2022/01/11 19:44:25;;;;;;;37.38;20.10;;;19.00;59.50;;;;;;10503892;28;20028;-55
2022/01/11 19:49:26;;;;;;;33.65;18.45;;;19.10;58.80;;;;;;10515330;28;20036;-54
2022/01/11 19:54:27;;;;;;;26.95;16.52;;;19.00;59.10;;;;;;10540206;28;20072;-56
2022/01/11 19:59:28;;;;;;;28.88;16.48;;;19.10;58.90;;;;;;10540470;28;20028;-56
2022/01/11 20:04:29;;;;;;;27.92;16.92;;;19.00;58.70;;;;;;10539089;28;20614;-56
2022/01/11 20:09:30;;;;;;;33.13;15.77;;;19.10;58.20;;;;;;10494159;28;20025;-55
2022/01/11 20:14:30;;;;;;;29.00;14.77;;;19.00;58.20;;;;;;10500996;28;20024;-58
2022/01/11 20:19:36;;;;;;;22.13;13.95;;;19.00;58.10;;;;;;10522408;28;20032;-54
2022/01/11 20:30:00;;;;;;;21.95;12.23;;;18.90;58.20;;;;;;10482806;28;20040;-53
2022/01/11 20:35:03;;;;;;;19.38;12.38;;;18.90;58.10;;;;;;10516984;28;20032;-55
2022/01/11 20:40:06;;;;;;;17.30;12.07;;;19.00;57.60;;;;;;10500517;28;20499;-54
2022/01/11 20:45:09;;;;;;;20.95;12.50;;;19.00;57.40;;;;;;10521498;28;20448;-53
2022/01/11 20:55:32;;;;;;;18.02;10.73;;;19.10;56.50;;;;;;10539813;28;20078;-54
2022/01/11 21:00:33;;;;;;;17.67;10.50;;;19.10;56.50;;;;;;10516328;28;20063;-55
2022/01/11 21:05:34;;;;;;;17.77;10.32;;;19.10;56.40;;;;;;10518170;28;20035;-54
2022/01/11 21:10:36;;;;;;;16.42;9.65;;;19.20;56.10;;;;;;10502919;28;20035;-56
2022/01/11 21:15:46;;;;;;;16.92;9.60;;;19.10;56.00;;;;;;10481159;28;20032;-54
2022/01/11 21:20:52;;;;;;;21.73;9.68;;;19.00;56.20;;;;;;10494105;28;20388;-55
2022/01/11 21:25:57;;;;;;;16.48;8.95;;;19.00;56.20;;;;;;10493743;28;20036;-54
2022/01/11 21:30:58;;;;;;;16.20;9.18;;;19.00;56.10;;;;;;10499018;28;20046;-55
2022/01/11 21:36:00;;;;;;;15.88;9.68;;;19.10;55.80;;;;;;10494030;28;20464;-55
2022/01/11 21:41:04;;;;;;;12.52;8.60;;;19.00;55.70;;;;;;10480174;28;20086;-55
2022/01/11 21:46:05;;;;;;;11.88;8.13;;;19.00;55.60;;;;;;10511235;28;20031;-54
2022/01/11 21:51:06;;;;;;;12.35;8.13;;;19.10;55.50;;;;;;10504633;28;20032;-54
2022/01/11 21:56:07;;;;;;;12.90;8.65;;;19.10;55.50;;;;;;10499335;28;20107;-54
2022/01/11 22:01:07;;;;;;;12.52;8.10;;;19.10;55.50;;;;;;10479254;28;20467;-53
2022/01/11 22:06:08;;;;;;;12.35;7.57;;;19.10;55.20;;;;;;10497043;28;20033;-55
2022/01/11 22:11:09;;;;;;;12.13;7.63;;;19.10;55.20;;;;;;10506935;28;20341;-55
2022/01/11 22:16:22;;;;;;;10.13;6.82;;;19.10;55.00;;;;;;10507161;28;20543;-55
2022/01/11 22:21:23;;;;;;;11.38;6.63;;;19.10;55.00;;;;;;10522058;28;20089;-55
2022/01/11 22:26:23;;;;;;;6.90;5.72;;;19.10;55.00;;;;;;10520078;28;20057;-54
2022/01/11 22:31:24;;;;;;;8.27;5.97;;;19.10;54.80;;;;;;10538055;28;20140;-54
2022/01/11 22:36:25;;;;;;;8.93;6.50;;;19.10;54.90;;;;;;10518497;28;20162;-55
2022/01/11 22:41:27;;;;;;;9.70;6.05;;;19.10;54.80;;;;;;10491597;28;20028;-56
2022/01/11 22:46:27;;;;;;;10.93;6.85;;;19.10;54.60;;;;;;10491897;28;20020;-55
2022/01/11 22:51:28;;;;;;;8.57;5.63;;;19.10;54.70;;;;;;10478087;28;20369;-54
2022/01/11 22:56:29;;;;;;;9.02;5.45;;;19.10;54.60;;;;;;10502392;28;20032;-55
2022/01/11 23:01:30;;;;;;;9.68;5.85;;;19.00;54.60;;;;;;10505493;28;20024;-55
2022/01/11 23:06:31;;;;;;;9.15;5.78;;;19.10;54.50;;;;;;10499576;28;20363;-55
2022/01/11 23:11:35;;;;;;;6.75;5.10;;;19.10;54.50;;;;;;10496485;28;20119;-54
2022/01/11 23:16:36;;;;;;;9.98;5.93;;;19.00;54.50;;;;;;10493362;28;20081;-55
2022/01/11 23:21:37;;;;;;;8.77;5.43;;;19.10;55.10;;;;;;10485334;28;20047;-54
2022/01/11 23:26:38;;;;;;;7.82;5.22;;;19.10;54.40;;;;;;10512544;28;20017;-53
2022/01/11 23:31:39;;;;;;;8.35;5.78;;;19.10;54.30;;;;;;10420018;28;20136;-55
2022/01/11 23:36:43;;;;;;;10.32;5.60;;;19.10;54.00;;;;;;10446968;28;20477;-54
2022/01/11 23:41:57;;;;;;;7.65;5.15;;;19.10;53.90;;;;;;10418726;28;20052;-55
2022/01/11 23:46:58;;;;;;;8.13;5.18;;;19.10;54.00;;;;;;10418700;28;20025;-55
2022/01/11 23:52:00;;;;;;;7.75;5.60;;;19.10;53.90;;;;;;10431775;28;20029;-54
2022/01/11 23:57:02;;;;;;;7.60;5.68;;;19.20;53.70;;;;;;10431420;28;20032;-55
